Mercer, WI (54547)

1:04 AM CST on February 07, 2016 (GMT -0600)
Pine Lake | | Change Station
CLOSE
Current Station
Personal Weather Station
Location: Hurley, WI
Elevation: 1604 ft
Nearby Weather Stations

Elev 1604 ft 46.25 °N, 90.13 °W | Updated 15 seconds ago

Overcast
Overcast
27.7 °F
Feels Like 17 °F
N
12.7
Wind Variable Wind from SW
Gusts 12.7 mph

Today
High -- | Low -- °F
--% Chance of Precip.
Yesterday
High -- | Low -- °F
Precip. -- in
Pressure 29.68 in
Visibility 3.0 miles
Clouds Overcast 1000 ft
Windchill 17 °F
Dew Point 22 °F
Humidity 79%
Rainfall 0.00 in
Snow Depth Not available.
7:15 AM 5:13 PM
Waning Crescent, 2% visible
METAR KD25 070655Z AUTO 20009G15KT 3SM -SN OVC010 M02/M03 A2968 RMK AO2 T10251030
Pressure 29.68 in
Visibility 3.0 miles
Clouds Overcast 1000 ft
Windchill 17 °F
Dew Point 22 °F
Humidity 79%
Rainfall 0.00 in
Snow Depth Not available.
7:15 AM 5:13 PM
Waning Crescent, 2% visible
METAR KD25 070655Z AUTO 20009G15KT 3SM -SN OVC010 M02/M03 A2968 RMK AO2 T10251030

10-Day Weather Forecast

Almanac

Astronomy

Feb. 07, 2016 Rise Set
Actual Time
Civil Twilight
Nautical Twilight
Astronomical Twilight
Moon
Length of Visible Light
Length of Day
Tomorrow will be .
, % of the Moon is Illuminated

Today's Extremes

State Highs State Lows

Community

WunderPhotos

Upload Photos

1,891,174 photos uploaded!

WunderBlog® & News

Nearby

Air Quality

  Air Quality AQ Index Pollutant
Not available.

Snow Depth

Station Depth Elevation

Earthquake Activity

City Distance Mag. Time & Date
Minimum magnitude displayed is 2.5.

Coastal Water Temperatures

Place Temperature

Stations

Nearby Weather Stations

Station Location Temp. Windchill Dew Point Humidity Wind Precip. Elev Updated Type
                   

Watches & Warnings

There are currently no watches in effect.